Time;durP1;ratioP1;P1;durP2;ratioP2;P2;SDS_P1;SDS_P2;PMS_P1;PMS_P2;Temp;Humidity;BMP_temperature;BMP_pressure;BME280_temperature;BME280_humidity;BME280_pressure;Samples;Min_cycle;Max_cycle;Signal;HPM_P1;HPM_P2
2024/02/17 00:01:34;;;;;;;10.88;5.93;;;;;;;5.71;100.00;93077.09;5051923;28;20484;-79
2024/02/17 00:04:00;;;;;;;12.38;6.75;;;;;;;5.56;100.00;93056.94;5054292;28;20420;-79
2024/02/17 00:06:25;;;;;;;12.10;6.95;;;;;;;5.72;100.00;93083.88;5051594;28;20033;-80
2024/02/17 00:08:51;;;;;;;12.38;6.70;;;;;;;5.73;100.00;93089.84;5057466;28;20032;-79
2024/02/17 00:11:16;;;;;;;12.55;6.63;;;;;;;5.72;100.00;93086.47;5061700;28;20056;-80
2024/02/17 00:13:43;;;;;;;12.23;6.50;;;;;;;5.67;100.00;93085.63;5058405;28;20117;-79
2024/02/17 00:16:08;;;;;;;13.95;6.88;;;;;;;5.66;100.00;93086.66;5034037;28;20103;-80
2024/02/17 00:18:34;;;;;;;14.10;7.10;;;;;;;5.69;100.00;93086.16;5052404;28;20076;-80
2024/02/17 00:21:03;;;;;;;13.20;6.13;;;;;;;5.66;100.00;93095.22;5052424;28;20063;-80
2024/02/17 00:23:29;;;;;;;12.73;6.13;;;;;;;5.63;100.00;93093.91;5050985;28;20431;-80
2024/02/17 00:25:55;;;;;;;11.63;5.15;;;;;;;5.60;100.00;93085.78;5043002;28;20047;-80
2024/02/17 00:28:26;;;;;;;12.40;5.45;;;;;;;5.58;100.00;93090.44;5050622;28;20488;-80
2024/02/17 00:30:53;;;;;;;8.50;4.82;;;;;;;5.53;100.00;93091.16;5051936;28;20561;-79
2024/02/17 00:33:19;;;;;;;11.85;5.47;;;;;;;5.52;100.00;93086.22;5061660;28;20032;-79
2024/02/17 00:35:44;;;;;;;10.23;5.35;;;;;;;5.54;100.00;93084.94;5057716;28;20037;-79
2024/02/17 00:38:10;;;;;;;9.57;5.57;;;;;;;5.53;100.00;93085.97;5042129;28;20035;-79
2024/02/17 00:40:35;;;;;;;9.55;5.35;;;;;;;5.52;100.00;93092.19;5051637;28;20397;-80
2024/02/17 00:43:01;;;;;;;11.32;5.65;;;;;;;5.53;100.00;93092.97;5051825;28;20029;-80
2024/02/17 00:45:27;;;;;;;10.32;4.90;;;;;;;5.52;100.00;93094.00;5049620;28;20037;-80
2024/02/17 00:47:53;;;;;;;9.07;4.55;;;;;;;5.49;100.00;93095.25;5049373;28;20047;-81
2024/02/17 00:50:18;;;;;;;11.05;4.70;;;;;;;5.48;100.00;93096.28;5040392;28;20370;-79
2024/02/17 00:52:44;;;;;;;8.88;4.85;;;;;;;5.47;100.00;93094.72;5036640;28;20061;-79
2024/02/17 00:55:10;;;;;;;10.02;5.38;;;;;;;5.46;100.00;93087.94;5059709;28;20040;-80
2024/02/17 00:57:36;;;;;;;16.33;6.25;;;;;;;5.46;100.00;93090.53;5030777;28;20053;-80
2024/02/17 01:00:04;;;;;;;11.55;5.82;;;;;;;5.46;100.00;93090.53;5051663;28;20504;-80
2024/02/17 01:02:32;;;;;;;12.65;5.30;;;;;;;5.47;100.00;93086.94;5048140;28;20083;-80
2024/02/17 01:04:59;;;;;;;12.02;4.75;;;;;;;5.47;100.00;93092.13;5042049;28;20061;-79
2024/02/17 01:07:25;;;;;;;10.13;4.32;;;;;;;5.46;100.00;93090.53;5054565;28;20033;-80
2024/02/17 01:09:50;;;;;;;9.88;4.07;;;;;;;5.48;100.00;93100.69;5061061;28;20441;-81
2024/02/17 01:12:16;;;;;;;8.45;4.07;;;;;;;5.47;100.00;93093.91;5050612;28;20051;-80
2024/02/17 01:14:42;;;;;;;7.85;3.90;;;;;;;5.47;100.00;93099.94;5054458;28;20091;-79
2024/02/17 01:17:07;;;;;;;8.68;4.40;;;;;;;5.48;100.00;93092.91;5051889;28;20033;-80
2024/02/17 01:19:33;;;;;;;9.93;4.03;;;;;;;5.49;100.00;93091.88;5033537;28;20032;-79
2024/02/17 01:21:59;;;;;;;8.13;3.92;;;;;;;5.48;100.00;93083.31;5050822;28;20037;-80
2024/02/17 01:24:24;;;;;;;8.73;4.30;;;;;;;5.49;100.00;93084.88;5051312;28;20040;-80
2024/02/17 01:26:50;;;;;;;8.73;3.85;;;;;;;5.49;100.00;93084.88;5050763;28;20571;-80
2024/02/17 01:29:18;;;;;;;9.35;4.47;;;;;;;5.44;100.00;93071.81;5051922;28;20078;-80
2024/02/17 01:31:45;;;;;;;7.90;3.90;;;;;;;5.46;100.00;93080.16;5049433;28;20569;-79
2024/02/17 01:34:10;;;;;;;10.10;4.18;;;;;;;5.45;100.00;93078.59;5049736;28;20114;-80
2024/02/17 01:36:36;;;;;;;7.75;3.90;;;;;;;5.43;100.00;93078.06;5051318;28;20067;-78
2024/02/17 01:39:02;;;;;;;6.70;3.70;;;;;;;5.41;100.00;93077.50;5050519;28;20040;-80
2024/02/17 01:41:28;;;;;;;7.88;3.95;;;;;;;5.39;100.00;93084.75;5050470;28;20120;-80
2024/02/17 01:43:54;;;;;;;8.65;3.80;;;;;;;5.34;100.00;93077.66;5050159;28;20152;-79
2024/02/17 01:46:20;;;;;;;7.30;3.67;;;;;;;5.32;100.00;93073.75;5050298;28;20041;-78
2024/02/17 01:48:46;;;;;;;9.52;4.20;;;;;;;5.31;100.00;93082.53;5027162;28;20060;-80
2024/02/17 01:51:13;;;;;;;10.43;3.70;;;;;;;5.26;100.00;93075.47;5012662;28;20045;-81
2024/02/17 01:53:41;;;;;;;7.20;3.60;;;;;;;5.20;100.00;93082.41;5044717;28;20132;-78
2024/02/17 01:56:09;;;;;;;8.43;4.10;;;;;;;5.20;100.00;93082.41;5051724;28;20033;-78
2024/02/17 01:58:35;;;;;;;9.40;3.92;;;;;;;5.18;100.00;93081.09;5050306;28;20110;-80
2024/02/17 02:01:02;;;;;;;7.13;3.50;;;;;;;5.14;100.00;93082.56;5048269;28;20036;-79
2024/02/17 02:03:28;;;;;;;8.48;4.30;;;;;;;5.13;100.00;93088.78;5049973;28;20051;-79
2024/02/17 02:05:56;;;;;;;10.48;4.68;;;;;;;5.12;100.00;93080.22;5048171;28;20102;-79
2024/02/17 02:08:21;;;;;;;7.25;3.80;;;;;;;5.09;100.00;93085.88;5053214;28;20087;-80
2024/02/17 02:10:47;;;;;;;10.20;4.53;;;;;;;5.09;100.00;93082.47;5047717;28;20612;-79
2024/02/17 02:13:13;;;;;;;9.48;4.60;;;;;;;5.07;100.00;93085.34;5048060;28;20040;-79
2024/02/17 02:15:42;;;;;;;7.80;3.83;;;;;;;5.05;100.00;93078.81;5050038;28;20052;-80
2024/02/17 02:18:09;;;;;;;7.53;4.03;;;;;;;5.03;100.00;93079.03;5032535;28;20048;-80
2024/02/17 02:20:35;;;;;;;8.63;4.47;;;;;;;5.04;100.00;93070.22;5046540;28;20058;-80
2024/02/17 02:23:01;;;;;;;6.28;3.38;;;;;;;5.03;100.00;93075.66;5030431;28;20041;-80
2024/02/17 02:25:26;;;;;;;7.95;3.72;;;;;;;4.99;100.00;93073.53;5044504;28;20407;-81
2024/02/17 02:27:55;;;;;;;8.13;3.75;;;;;;;4.96;100.00;93071.41;5052397;28;20579;-80
2024/02/17 02:30:24;;;;;;;8.40;3.40;;;;;;;4.91;100.00;93070.53;5049864;28;20033;-80
2024/02/17 02:32:55;;;;;;;6.20;3.00;;;;;;;4.83;100.00;93065.75;5049288;28;20591;-79
2024/02/17 02:35:21;;;;;;;6.28;3.00;;;;;;;4.80;100.00;93061.84;5050117;28;20068;-78
2024/02/17 02:37:46;;;;;;;5.72;2.60;;;;;;;4.76;100.00;93066.69;5049883;28;20064;-80
2024/02/17 02:40:12;;;;;;;5.68;2.20;;;;;;;4.71;100.00;93058.84;5050694;28;20029;-80
2024/02/17 02:42:38;;;;;;;5.68;2.47;;;;;;;4.67;100.00;93068.13;5050141;28;20021;-80
2024/02/17 02:45:04;;;;;;;5.45;2.90;;;;;;;4.64;100.00;93058.22;5049816;28;20045;-79
2024/02/17 02:47:29;;;;;;;6.30;3.03;;;;;;;4.64;100.00;93058.22;5048918;28;20388;-79
2024/02/17 02:49:55;;;;;;;8.02;3.20;;;;;;;4.60;100.00;93057.13;5056770;28;20051;-80
2024/02/17 02:52:20;;;;;;;5.15;2.72;;;;;;;4.56;100.00;93043.81;5040234;28;20102;-79
2024/02/17 02:54:46;;;;;;;4.70;2.47;;;;;;;4.61;100.00;93053.50;5050750;28;20040;-79
2024/02/17 02:57:11;;;;;;;6.85;2.85;;;;;;;4.62;100.00;93051.69;5050252;28;20053;-79
2024/02/17 02:59:37;;;;;;;5.50;2.67;;;;;;;4.63;100.00;93056.63;5027610;28;20037;-80
2024/02/17 03:02:04;;;;;;;4.75;2.60;;;;;;;4.64;100.00;93058.22;5032097;28;20492;-80
2024/02/17 03:04:29;;;;;;;4.95;2.67;;;;;;;4.62;100.00;93060.25;5051799;28;20056;-79
2024/02/17 03:06:55;;;;;;;6.07;2.67;;;;;;;4.61;100.00;93063.06;5022706;28;20033;-78
2024/02/17 03:09:21;;;;;;;5.97;2.70;;;;;;;4.58;100.00;93062.53;5056755;28;20499;-80
2024/02/17 03:11:48;;;;;;;8.10;2.83;;;;;;;4.58;100.00;93064.34;5049182;28;20044;-79
2024/02/17 03:14:18;;;;;;;6.63;2.92;;;;;;;4.55;100.00;93059.63;5048732;28;20562;-79
2024/02/17 03:16:43;;;;;;;6.57;3.22;;;;;;;4.55;100.00;93054.44;5048472;28;20044;-78
2024/02/17 03:19:09;;;;;;;6.38;3.17;;;;;;;4.52;100.00;93054.91;5058275;28;20056;-80
2024/02/17 03:21:35;;;;;;;7.47;3.63;;;;;;;4.47;100.00;93053.00;5048398;28;20060;-81
2024/02/17 03:24:00;;;;;;;5.95;3.00;;;;;;;4.49;100.00;93061.34;5040417;28;20037;-79
2024/02/17 03:26:26;;;;;;;7.80;3.28;;;;;;;4.49;100.00;93057.97;5048904;28;20033;-80
2024/02/17 03:28:52;;;;;;;6.88;3.10;;;;;;;4.49;100.00;93060.56;5049880;28;20040;-78
2024/02/17 03:31:18;;;;;;;6.43;3.50;;;;;;;4.48;100.00;93064.16;5068622;28;20040;-80
2024/02/17 03:33:43;;;;;;;10.35;3.42;;;;;;;4.46;100.00;93055.81;5059248;28;20067;-79
2024/02/17 03:36:10;;;;;;;7.10;3.35;;;;;;;4.46;100.00;93061.00;5051361;28;20600;-80
2024/02/17 03:38:37;;;;;;;7.53;3.63;;;;;;;4.43;100.00;93056.31;5052959;28;20029;-78
2024/02/17 03:41:03;;;;;;;8.40;3.92;;;;;;;4.46;100.00;93058.41;5043157;28;20025;-78
2024/02/17 03:43:29;;;;;;;6.85;3.22;;;;;;;4.45;100.00;93059.44;5052452;28;20052;-79
2024/02/17 03:45:55;;;;;;;6.03;3.17;;;;;;;4.44;100.00;93069.03;5050544;28;20049;-79
2024/02/17 03:48:21;;;;;;;5.95;3.05;;;;;;;4.44;100.00;93068.25;5042659;28;20655;-79
2024/02/17 03:50:50;;;;;;;6.68;3.28;;;;;;;4.43;100.00;93069.25;5049160;28;20171;-79
2024/02/17 03:53:19;;;;;;;6.03;3.17;;;;;;;4.42;100.00;93067.72;5052246;28;20651;-79
2024/02/17 03:55:45;;;;;;;7.70;2.85;;;;;;;4.41;100.00;93068.72;5057058;28;20057;-79
2024/02/17 03:58:11;;;;;;;5.47;2.80;;;;;;;4.36;100.00;93072.78;5044906;28;20044;-79
2024/02/17 04:00:37;;;;;;;4.35;2.40;;;;;;;4.34;100.00;93076.63;5057202;28;20032;-80
2024/02/17 04:03:03;;;;;;;6.32;2.47;;;;;;;4.32;100.00;93074.28;5055220;28;20039;-79
2024/02/17 04:05:28;;;;;;;4.38;2.17;;;;;;;4.34;100.00;93072.22;5058339;28;20048;-79
2024/02/17 04:07:54;;;;;;;5.43;2.33;;;;;;;4.33;100.00;93075.06;5052585;28;20044;-80
2024/02/17 04:10:20;;;;;;;4.30;2.20;;;;;;;4.31;100.00;93077.88;5054651;28;20025;-81
2024/02/17 04:12:45;;;;;;;3.92;2.08;;;;;;;4.30;100.00;93080.69;5037963;28;20596;-80
2024/02/17 04:15:11;;;;;;;5.63;2.97;;;;;;;4.29;100.00;93086.91;5016474;28;20041;-79
2024/02/17 04:17:37;;;;;;;5.05;2.72;;;;;;;4.31;100.00;93084.88;5048461;28;20074;-79
2024/02/17 04:20:06;;;;;;;6.75;3.05;;;;;;;4.29;100.00;93095.47;5033408;28;20399;-79
2024/02/17 04:22:32;;;;;;;7.65;3.47;;;;;;;4.28;100.00;93091.31;5057157;28;20032;-80
2024/02/17 04:24:57;;;;;;;8.10;3.42;;;;;;;4.27;100.00;93094.91;5072048;28;20112;-80
2024/02/17 04:27:23;;;;;;;6.90;3.50;;;;;;;4.30;100.00;93098.84;5034634;28;20037;-79
2024/02/17 04:29:48;;;;;;;7.43;3.53;;;;;;;4.30;100.00;93104.03;5026226;28;20255;-79
2024/02/17 04:32:14;;;;;;;8.05;3.65;;;;;;;4.29;100.00;93100.66;5025877;28;20041;-79
2024/02/17 04:34:39;;;;;;;8.48;3.47;;;;;;;4.27;100.00;93109.69;5043956;28;20515;-80
2024/02/17 04:37:05;;;;;;;7.78;3.85;;;;;;;4.27;100.00;93109.69;5034334;28;20416;-80
2024/02/17 04:39:31;;;;;;;7.00;3.47;;;;;;;4.27;100.00;93109.69;5051417;28;20039;-80
2024/02/17 04:41:56;;;;;;;9.45;3.80;;;;;;;4.25;100.00;93112.50;5055872;28;20029;-81
2024/02/17 04:44:22;;;;;;;9.52;3.92;;;;;;;4.25;100.00;93119.50;5046644;28;20033;-79
2024/02/17 04:46:47;;;;;;;8.20;3.58;;;;;;;4.24;100.00;93108.34;5050913;28;20025;-80
2024/02/17 04:49:13;;;;;;;7.65;3.83;;;;;;;4.24;100.00;93117.94;5045281;28;20044;-78
2024/02/17 04:51:39;;;;;;;9.25;4.05;;;;;;;4.23;100.00;93122.31;5049971;28;20937;-79
2024/02/17 04:54:04;;;;;;;8.38;3.75;;;;;;;4.16;100.00;93113.88;5043110;28;20032;-79
2024/02/17 04:56:30;;;;;;;7.55;4.05;;;;;;;4.21;100.00;93123.56;5053173;28;20429;-79
2024/02/17 04:58:55;;;;;;;8.00;4.05;;;;;;;4.20;100.00;93125.38;5051482;28;20045;-80
2024/02/17 05:01:22;;;;;;;8.20;4.18;;;;;;;4.16;100.00;93113.88;5067710;28;20504;-80
2024/02/17 05:03:49;;;;;;;8.27;4.15;;;;;;;4.22;100.00;93127.75;5036441;28;20562;-80
2024/02/17 05:06:17;;;;;;;7.15;3.75;;;;;;;4.17;100.00;93123.25;5053524;28;20386;-80
2024/02/17 05:08:45;;;;;;;9.57;3.90;;;;;;;4.22;100.00;93132.94;5065175;28;20501;-79
2024/02/17 05:11:12;;;;;;;6.88;3.30;;;;;;;4.21;100.00;93131.34;5033269;28;20041;-80
2024/02/17 05:13:38;;;;;;;8.30;3.80;;;;;;;4.24;100.00;93142.03;5056559;28;20082;-79
2024/02/17 05:16:04;;;;;;;6.97;3.25;;;;;;;4.15;100.00;93125.28;5049402;28;20041;-79
2024/02/17 05:18:30;;;;;;;6.78;3.53;;;;;;;4.23;100.00;93140.44;5039558;28;20048;-80
2024/02/17 05:20:55;;;;;;;5.70;2.88;;;;;;;4.20;100.00;93138.31;5047095;28;20487;-79
2024/02/17 05:23:21;;;;;;;7.20;3.28;;;;;;;4.22;100.00;93138.09;5020640;28;20136;-78
2024/02/17 05:25:48;;;;;;;6.28;3.22;;;;;;;4.21;100.00;93142.50;5045450;28;20132;-80
2024/02/17 05:28:14;;;;;;;8.70;3.45;;;;;;;4.21;100.00;93142.50;5049696;28;20029;-80
2024/02/17 05:30:40;;;;;;;6.80;3.40;;;;;;;4.19;100.00;93141.94;5050742;28;20547;-80
2024/02/17 05:33:05;;;;;;;7.25;3.33;;;;;;;4.21;100.00;93139.91;5054833;28;20067;-80
2024/02/17 05:35:31;;;;;;;6.47;3.50;;;;;;;3.97;100.00;93108.09;5050943;28;20377;-79
2024/02/17 05:37:56;;;;;;;7.63;3.60;;;;;;;4.20;100.00;93150.50;5050595;28;20041;-79
2024/02/17 05:40:22;;;;;;;6.85;3.95;;;;;;;4.17;100.00;93147.34;5066728;28;20025;-79
2024/02/17 05:42:48;;;;;;;10.05;4.22;;;;;;;4.15;100.00;93140.84;5050434;28;20492;-80
2024/02/17 05:45:14;;;;;;;10.82;4.40;;;;;;;4.13;100.00;93151.41;5049790;28;20055;-79
2024/02/17 05:47:40;;;;;;;6.00;3.50;;;;;;;4.12;100.00;93143.88;5050247;28;20552;-79
2024/02/17 05:50:06;;;;;;;6.68;3.42;;;;;;;4.11;100.00;93158.63;5057570;28;20051;-80
2024/02/17 05:52:32;;;;;;;4.78;2.80;;;;;;;4.11;100.00;93147.47;5036834;28;20415;-81
2024/02/17 05:54:58;;;;;;;6.55;2.97;;;;;;;4.10;100.00;93151.88;5060918;28;20270;-79
2024/02/17 05:57:23;;;;;;;6.30;2.65;;;;;;;4.09;100.00;93158.06;5068128;28;20497;-78
2024/02/17 05:59:49;;;;;;;6.22;2.80;;;;;;;4.07;100.00;93151.53;5042540;28;20037;-79
2024/02/17 06:02:14;;;;;;;6.55;2.70;;;;;;;4.10;100.00;93161.47;5035724;28;20073;-78
2024/02/17 06:04:40;;;;;;;5.03;2.72;;;;;;;4.11;100.00;93163.03;5064938;28;20036;-80
2024/02/17 06:07:05;;;;;;;4.68;2.63;;;;;;;4.12;100.00;93162.00;5067297;28;20024;-80
2024/02/17 06:09:31;;;;;;;4.35;2.15;;;;;;;4.07;100.00;93152.31;5043180;28;20103;-79
2024/02/17 06:11:57;;;;;;;4.13;2.10;;;;;;;4.14;100.00;93153.00;5045435;28;20064;-80
2024/02/17 06:14:22;;;;;;;4.90;2.08;;;;;;;4.16;100.00;93158.72;5066962;28;20381;-79
2024/02/17 06:16:48;;;;;;;5.22;2.17;;;;;;;4.17;100.00;93162.13;5050093;28;20041;-79
2024/02/17 06:21:57;;;;;;;5.50;2.63;;;;;;;4.20;100.00;93155.69;5055665;28;20037;-79
2024/02/17 06:24:23;;;;;;;4.35;2.40;;;;;;;4.24;100.00;93164.59;5045314;28;20040;-79
2024/02/17 06:26:49;;;;;;;5.40;2.85;;;;;;;4.25;100.00;93159.16;5025412;28;20037;-80
2024/02/17 06:29:14;;;;;;;5.97;2.55;;;;;;;4.28;100.00;93169.06;5049720;28;20045;-79
2024/02/17 06:31:42;;;;;;;6.28;2.60;;;;;;;4.30;100.00;93168.81;5050501;28;20031;-80
2024/02/17 06:34:07;;;;;;;6.82;2.80;;;;;;;4.34;100.00;93175.13;5051680;28;20068;-79
2024/02/17 06:36:33;;;;;;;4.95;2.80;;;;;;;4.40;100.00;93176.03;5039865;28;20100;-79
2024/02/17 06:38:59;;;;;;;7.22;3.10;;;;;;;4.48;100.00;93183.41;5030396;28;20038;-80
2024/02/17 06:41:24;;;;;;;7.85;2.80;;;;;;;4.68;100.00;93185.59;5049861;28;20029;-79
2024/02/17 06:43:52;;;;;;;7.03;3.20;;;;;;;4.90;100.00;93178.72;5048488;28;20049;-79
2024/02/17 06:46:18;;;;;;;5.53;3.00;;;;;;;5.20;100.00;93181.06;5029976;28;20124;-80
2024/02/17 06:48:44;;;;;;;5.78;3.00;;;;;;;5.57;100.00;93183.16;5035822;28;20108;-81
2024/02/17 06:51:11;;;;;;;5.85;2.90;;;;;;;5.75;100.00;93186.53;5038146;28;20037;-80
2024/02/17 06:53:37;;;;;;;5.80;3.28;;;;;;;5.99;100.00;93182.72;5064328;28;20488;-81
2024/02/17 06:56:03;;;;;;;6.78;3.30;;;;;;;6.03;100.00;93188.22;5058248;28;20170;-80
2024/02/17 06:58:29;;;;;;;6.18;3.15;;;;;;;5.88;100.00;93178.41;5049688;28;20045;-78
2024/02/17 07:00:54;;;;;;;6.07;2.90;;;;;;;6.03;100.00;93191.63;5028751;28;20044;-81
2024/02/17 07:03:20;;;;;;;6.65;2.75;;;;;;;6.26;100.00;93200.22;5029087;28;20508;-80
2024/02/17 07:05:46;;;;;;;4.82;2.75;;;;;;;6.44;100.00;93194.72;5044374;28;20124;-80
2024/02/17 07:08:11;;;;;;;4.78;2.50;;;;;;;7.11;100.00;93211.00;5048546;28;20036;-80
2024/02/17 07:10:38;;;;;;;7.32;2.80;;;;;;;7.89;100.00;93211.34;5051186;28;20036;-80
2024/02/17 07:13:05;;;;;;;6.50;2.78;;;;;;;8.76;97.13;93216.22;5038934;28;20448;-80
2024/02/17 07:15:31;;;;;;;6.85;3.00;;;;;;;9.66;95.17;93212.41;5026715;28;20074;-78
2024/02/17 07:18:01;;;;;;;5.80;2.78;;;;;;;10.49;88.18;93209.44;5053749;28;20111;-82
2024/02/17 07:20:35;;;;;;;6.45;3.10;;;;;;;11.15;83.18;93210.16;5054288;28;20450;-79
2024/02/17 07:23:01;;;;;;;6.18;2.83;;;;;;;11.72;78.53;93224.44;5062991;28;20454;-80
2024/02/17 07:25:29;;;;;;;9.63;3.40;;;;;;;12.57;72.26;93217.91;5073694;28;20025;-80
2024/02/17 07:27:58;;;;;;;8.95;4.68;;;;;;;12.94;66.60;93224.28;5057275;28;20443;-81
2024/02/17 07:30:25;;;;;;;9.00;5.00;;;;;;;13.26;65.14;93230.69;5034845;28;20564;-81
2024/02/17 07:32:52;;;;;;;8.82;5.05;;;;;;;13.44;66.45;93232.59;5033047;28;20117;-81
2024/02/17 07:35:18;;;;;;;9.63;5.25;;;;;;;13.73;61.63;93236.88;5055553;28;20048;-79
2024/02/17 07:37:44;;;;;;;9.48;5.40;;;;;;;13.63;63.39;93239.69;5054929;28;20029;-79
2024/02/17 07:40:10;;;;;;;11.48;5.13;;;;;;;14.33;61.16;93242.22;5042527;28;20039;-78
2024/02/17 07:42:36;;;;;;;12.40;5.80;;;;;;;14.22;56.34;93248.72;5054664;28;20447;-79
2024/02/17 07:45:04;;;;;;;10.45;5.78;;;;;;;14.66;59.40;93250.09;5054128;28;20037;-82
2024/02/17 07:47:32;;;;;;;13.70;5.78;;;;;;;14.98;57.56;93256.34;5053011;28;20443;-79
2024/02/17 07:49:59;;;;;;;8.38;5.25;;;;;;;15.41;54.47;93240.91;5051969;28;20027;-81
2024/02/17 07:52:25;;;;;;;10.18;5.65;;;;;;;15.69;55.44;93248.75;5051569;28;20043;-80
2024/02/17 07:54:50;;;;;;;8.52;4.72;;;;;;;16.35;53.58;93257.00;5052374;28;20458;-78
2024/02/17 07:57:16;;;;;;;6.93;4.13;;;;;;;16.53;49.30;93246.53;5051296;28;20261;-79
2024/02/17 07:59:42;;;;;;;8.52;4.07;;;;;;;17.19;45.81;93247.38;5051905;28;20037;-80
2024/02/17 08:02:07;;;;;;;6.22;4.10;;;;;;;16.73;47.15;93261.84;5033929;28;20041;-78
2024/02/17 08:04:33;;;;;;;8.48;5.88;;;;;;;15.90;51.11;93262.31;5042961;28;20370;-79
2024/02/17 08:06:58;;;;;;;8.93;4.72;;;;;;;15.59;50.02;93260.31;5052343;28;20164;-79
2024/02/17 08:09:24;;;;;;;9.90;5.20;;;;;;;15.60;51.24;93271.66;5039758;28;20398;-79
2024/02/17 08:11:56;;;;;;;8.57;4.78;;;;;;;15.65;50.64;93265.47;5060345;28;20079;-79
2024/02/17 08:14:21;;;;;;;8.50;4.63;;;;;;;15.03;52.15;93266.00;5013929;28;20100;-78
2024/02/17 08:16:47;;;;;;;8.45;5.07;;;;;;;14.86;57.93;93277.91;5013909;28;20033;-79
2024/02/17 08:19:13;;;;;;;9.20;5.13;;;;;;;15.26;52.72;93269.47;5034240;28;20055;-79
2024/02/17 08:21:39;;;;;;;8.02;4.80;;;;;;;14.93;56.11;93277.53;5033675;28;20025;-79
2024/02/17 08:24:05;;;;;;;9.18;5.10;;;;;;;14.63;54.53;93279.66;5051987;28;20060;-79
2024/02/17 08:26:32;;;;;;;7.95;4.97;;;;;;;14.03;56.66;93287.50;5051424;28;20029;-79
2024/02/17 08:28:58;;;;;;;9.85;5.68;;;;;;;13.47;61.94;93281.22;5052118;28;20041;-79
2024/02/17 08:31:23;;;;;;;10.55;5.25;;;;;;;13.16;63.92;93297.34;5051520;28;20412;-79
2024/02/17 08:33:49;;;;;;;7.72;4.95;;;;;;;13.16;63.76;93293.94;5051418;28;20457;-79
2024/02/17 08:36:16;;;;;;;9.10;4.88;;;;;;;13.18;65.39;93299.69;5050781;28;20036;-78
2024/02/17 08:38:41;;;;;;;7.07;4.32;;;;;;;13.35;62.97;93293.97;5042365;28;20120;-79
2024/02/17 08:41:07;;;;;;;8.13;4.85;;;;;;;13.46;66.38;93301.44;5017791;28;20448;-78
2024/02/17 08:43:33;;;;;;;8.38;4.63;;;;;;;13.77;63.53;93301.03;5013625;28;20041;-79
2024/02/17 08:45:58;;;;;;;9.00;4.78;;;;;;;14.03;63.44;93305.94;5031045;28;20036;-79
2024/02/17 08:48:24;;;;;;;7.53;5.00;;;;;;;14.13;62.37;93311.78;5046405;28;20040;-80
2024/02/17 08:50:50;;;;;;;9.70;4.90;;;;;;;13.54;62.67;93308.72;5062036;28;20518;-80
2024/02/17 08:53:16;;;;;;;9.23;5.40;;;;;;;13.03;64.48;93309.31;5030374;28;20033;-84
2024/02/17 08:55:41;;;;;;;8.85;5.00;;;;;;;13.07;63.50;93315.56;5056996;28;20055;-80
2024/02/17 08:58:07;;;;;;;10.25;5.68;;;;;;;12.97;64.50;93318.34;5071152;28;20037;-79
2024/02/17 09:00:35;;;;;;;9.63;5.63;;;;;;;12.91;65.05;93317.59;5071124;28;20452;-78
2024/02/17 09:03:01;;;;;;;11.13;6.00;;;;;;;12.81;61.46;93319.53;5063421;28;20041;-81
2024/02/17 09:05:26;;;;;;;9.02;5.30;;;;;;;12.80;64.53;93318.78;5032804;28;20033;-78
2024/02/17 09:07:52;;;;;;;9.48;5.50;;;;;;;12.99;63.28;93329.34;5051343;28;20578;-78
2024/02/17 09:10:17;;;;;;;10.23;5.28;;;;;;;13.29;64.29;93332.72;5052843;28;20040;-81
2024/02/17 09:12:43;;;;;;;11.55;5.50;;;;;;;13.17;63.35;93340.97;5035981;28;20036;-79
2024/02/17 09:15:09;;;;;;;9.02;4.75;;;;;;;12.86;63.79;93341.31;5034995;28;20268;-80
2024/02/17 09:17:34;;;;;;;9.05;5.60;;;;;;;12.24;65.49;93341.06;5054570;28;20051;-80
2024/02/17 09:20:00;;;;;;;9.90;5.13;;;;;;;12.62;65.57;93349.16;5034224;28;20116;-80
2024/02/17 09:22:26;;;;;;;8.52;5.32;;;;;;;12.74;64.64;93350.63;5047512;28;20037;-80
2024/02/17 09:24:53;;;;;;;6.78;4.18;;;;;;;13.10;64.19;93351.03;5034686;28;20025;-79
2024/02/17 09:27:19;;;;;;;9.38;5.03;;;;;;;13.09;66.13;93345.00;5057816;28;20136;-80
2024/02/17 09:29:46;;;;;;;7.60;4.93;;;;;;;13.20;63.66;93350.16;5045341;28;20414;-81
2024/02/17 09:32:13;;;;;;;7.28;4.47;;;;;;;12.97;66.23;93356.94;5050006;28;20435;-80
2024/02/17 09:34:38;;;;;;;8.25;5.18;;;;;;;12.77;67.68;93361.38;5050402;28;20060;-81
2024/02/17 09:37:04;;;;;;;8.15;4.82;;;;;;;12.84;68.37;93363.66;5036235;28;20045;-79
2024/02/17 09:39:30;;;;;;;9.10;5.22;;;;;;;13.19;66.14;93361.72;5048220;28;20033;-80
2024/02/17 09:41:56;;;;;;;9.95;4.93;;;;;;;13.16;63.71;93370.16;5046505;28;20041;-80
2024/02/17 09:44:21;;;;;;;8.48;4.90;;;;;;;13.31;62.97;93362.16;5055687;28;20085;-80
2024/02/17 09:46:47;;;;;;;8.48;4.20;;;;;;;13.36;61.99;93359.44;5057233;28;20037;-80
2024/02/17 09:49:15;;;;;;;12.55;5.32;;;;;;;13.33;67.18;93371.31;5049535;28;20365;-80
2024/02/17 09:51:45;;;;;;;10.48;5.45;;;;;;;12.94;69.70;93365.41;5050068;28;20051;-80
2024/02/17 09:54:14;;;;;;;11.30;4.30;;;;;;;13.17;66.08;93366.47;5047608;28;20034;-79
2024/02/17 09:56:42;;;;;;;6.90;4.40;;;;;;;13.42;64.00;93373.31;5049794;28;20191;-79
2024/02/17 09:59:09;;;;;;;7.80;4.82;;;;;;;13.45;65.60;93372.75;5023939;28;20060;-79
2024/02/17 10:01:34;;;;;;;7.55;4.32;;;;;;;13.32;63.22;93376.84;5043746;28;20033;-82
2024/02/17 10:04:01;;;;;;;9.52;5.40;;;;;;;13.52;65.01;93379.22;5049794;28;20035;-79
2024/02/17 10:06:27;;;;;;;7.75;4.43;;;;;;;13.36;66.32;93383.13;5051360;28;20119;-80
2024/02/17 10:08:52;;;;;;;8.10;5.00;;;;;;;13.21;69.05;93389.28;5050916;28;20474;-78
2024/02/17 10:11:20;;;;;;;9.85;5.75;;;;;;;13.00;69.14;93393.97;5050670;28;20495;-79
2024/02/17 10:13:57;;;;;;;9.15;5.57;;;;;;;12.90;69.46;93389.63;5051800;28;20474;-80
2024/02/17 10:16:23;;;;;;;8.07;5.32;;;;;;;13.39;68.91;93400.16;5036614;28;20116;-79
2024/02/17 10:18:48;;;;;;;9.75;4.80;;;;;;;13.74;64.52;93401.59;5050736;28;20064;-80
2024/02/17 10:21:14;;;;;;;8.35;5.32;;;;;;;13.55;63.63;93404.19;5052945;28;20063;-79
2024/02/17 10:23:40;;;;;;;9.18;4.68;;;;;;;13.59;63.80;93404.41;5056765;28;20048;-79
2024/02/17 10:26:06;;;;;;;7.53;4.38;;;;;;;13.53;67.35;93407.13;5052471;28;20029;-81
2024/02/17 10:28:33;;;;;;;8.45;5.25;;;;;;;13.32;66.67;93406.53;5052042;28;20021;-80
2024/02/17 10:31:03;;;;;;;5.35;3.20;;;;;;;13.36;67.69;93404.16;5044233;28;20088;-81
2024/02/17 10:33:28;;;;;;;10.15;5.22;;;;;;;13.00;69.17;93414.22;5050524;28;20036;-79
2024/02/17 10:35:57;;;;;;;6.07;3.83;;;;;;;13.29;67.68;93412.38;5067323;28;20020;-80
2024/02/17 10:38:24;;;;;;;8.15;4.90;;;;;;;13.44;66.85;93411.44;5066206;28;20166;-81
2024/02/17 10:40:51;;;;;;;11.27;6.18;;;;;;;13.61;66.12;93412.81;5028528;28;20413;-79
2024/02/17 10:43:18;;;;;;;11.70;5.20;;;;;;;13.43;64.69;93416.97;5024234;28;20036;-78
2024/02/17 10:45:49;;;;;;;11.05;6.25;;;;;;;13.60;69.48;93416.50;5049140;28;20116;-79
2024/02/17 10:48:17;;;;;;;11.35;6.78;;;;;;;13.63;68.12;93421.19;5042427;28;20034;-79
2024/02/17 10:50:45;;;;;;;10.15;6.35;;;;;;;13.63;69.67;93418.56;5047594;28;20041;-78
2024/02/17 10:53:28;;;;;;;9.85;5.80;;;;;;;13.40;68.75;93422.78;5047952;28;20032;-79
2024/02/17 10:55:54;;;;;;;;;;;;;;;13.31;69.06;93420.00;5050324;28;20079;-79
2024/02/17 10:58:21;;;;;;;9.07;6.05;;;;;;;13.25;69.31;93427.09;5046018;28;19942;-79
2024/02/17 11:00:48;;;;;;;9.85;6.03;;;;;;;13.30;68.89;93426.28;5048997;28;20938;-80
2024/02/17 11:03:22;;;;;;;9.50;5.30;;;;;;;13.63;69.19;93418.56;5047474;28;20025;-78
2024/02/17 11:05:51;;;;;;;9.02;5.60;;;;;;;13.70;66.81;93426.91;5041010;28;20111;-79
2024/02/17 11:08:18;;;;;;;11.35;6.00;;;;;;;13.68;66.59;93429.03;5057827;28;20021;-78
2024/02/17 11:10:44;;;;;;;11.43;6.75;;;;;;;13.54;68.88;93429.72;5049246;28;20044;-78
2024/02/17 11:13:24;;;;;;;12.35;5.45;;;;;;;13.94;64.99;93427.66;5059057;28;20021;-78
2024/02/17 11:16:05;;;;;;;8.68;5.38;;;;;;;14.27;63.86;93425.06;5055703;28;20380;-78
2024/02/17 11:18:40;;;;;;;7.57;4.43;;;;;;;14.43;61.17;93422.22;5055550;28;20115;-79
2024/02/17 11:21:10;;;;;;;7.10;4.53;;;;;;;14.17;59.89;93417.34;5042787;28;20040;-78
2024/02/17 11:23:40;;;;;;;9.63;5.32;;;;;;;14.15;61.79;93425.50;5051408;28;20032;-77
2024/02/17 11:26:15;;;;;;;9.95;5.35;;;;;;;14.45;61.76;93420.84;5051884;28;20167;-79
2024/02/17 11:28:46;;;;;;;11.52;5.63;;;;;;;14.51;63.56;93421.56;5053316;28;20574;-78
2024/02/17 11:31:12;;;;;;;12.30;6.30;;;;;;;14.51;61.36;93413.69;5041427;28;20037;-79